sensor_id;sensor_type;location;lat;lon;timestamp;pressure;altitude;pressure_sealevel;temperature;humidity
43741;BME280;29352;48.708;9.290;2023-02-03T00:01:33;99112.19;;;-2.27;82.32
43741;BME280;29352;48.708;9.290;2023-02-03T00:03:58;99112.59;;;-2.33;82.58
43741;BME280;29352;48.708;9.290;2023-02-03T00:06:24;99118.25;;;-2.40;83.02
43741;BME280;29352;48.708;9.290;2023-02-03T00:08:53;99106.53;;;-2.34;82.90
43741;BME280;29352;48.708;9.290;2023-02-03T00:11:22;99097.97;;;-2.36;83.13
43741;BME280;29352;48.708;9.290;2023-02-03T00:13:48;99100.56;;;-2.49;83.32
43741;BME280;29352;48.708;9.290;2023-02-03T00:16:13;99090.00;;;-2.60;83.88
43741;BME280;29352;48.708;9.290;2023-02-03T00:18:39;99091.69;;;-2.33;83.49
43741;BME280;29352;48.708;9.290;2023-02-03T00:21:05;99083.31;;;-2.26;82.86
43741;BME280;29352;48.708;9.290;2023-02-03T00:23:31;99085.81;;;-2.50;83.48
43741;BME280;29352;48.708;9.290;2023-02-03T00:26:05;99099.63;;;-2.48;83.28
43741;BME280;29352;48.708;9.290;2023-02-03T00:28:32;99095.34;;;-2.36;82.66
43741;BME280;29352;48.708;9.290;2023-02-03T00:30:57;99092.53;;;-2.33;82.64
43741;BME280;29352;48.708;9.290;2023-02-03T00:33:23;99095.31;;;-2.49;82.78
43741;BME280;29352;48.708;9.290;2023-02-03T00:35:48;99088.75;;;-2.42;82.60
43741;BME280;29352;48.708;9.290;2023-02-03T00:38:14;99088.56;;;-2.51;82.90
43741;BME280;29352;48.708;9.290;2023-02-03T00:40:39;99087.00;;;-2.41;82.70
43741;BME280;29352;48.708;9.290;2023-02-03T00:43:05;99088.13;;;-2.45;82.54
43741;BME280;29352;48.708;9.290;2023-02-03T00:45:30;99088.22;;;-2.47;82.06
43741;BME280;29352;48.708;9.290;2023-02-03T00:47:55;99097.53;;;-2.43;82.49
43741;BME280;29352;48.708;9.290;2023-02-03T00:50:21;99097.94;;;-2.49;82.62
43741;BME280;29352;48.708;9.290;2023-02-03T00:52:46;99112.91;;;-2.51;82.51
43741;BME280;29352;48.708;9.290;2023-02-03T00:55:12;99112.59;;;-2.33;82.13
43741;BME280;29352;48.708;9.290;2023-02-03T00:57:37;99122.00;;;-2.56;82.53
43741;BME280;29352;48.708;9.290;2023-02-03T01:00:03;99112.59;;;-2.33;82.14
43741;BME280;29352;48.708;9.290;2023-02-03T01:02:30;99125.25;;;-2.40;82.17
43741;BME280;29352;48.708;9.290;2023-02-03T01:04:55;99132.28;;;-2.41;82.15
43741;BME280;29352;48.708;9.290;2023-02-03T01:07:21;99131.34;;;-2.27;82.02
43741;BME280;29352;48.708;9.290;2023-02-03T01:09:46;99119.19;;;-2.41;81.87
43741;BME280;29352;48.708;9.290;2023-02-03T01:12:11;99127.97;;;-2.42;82.02
43741;BME280;29352;48.708;9.290;2023-02-03T01:14:37;99120.88;;;-2.40;82.04
43741;BME280;29352;48.708;9.290;2023-02-03T01:17:03;99133.72;;;-2.37;81.94
43741;BME280;29352;48.708;9.290;2023-02-03T01:19:28;99138.41;;;-2.42;82.14
43741;BME280;29352;48.708;9.290;2023-02-03T01:21:54;99130.19;;;-2.48;82.59
43741;BME280;29352;48.708;9.290;2023-02-03T01:24:19;99109.66;;;-2.42;82.51
43741;BME280;29352;48.708;9.290;2023-02-03T01:26:44;99088.97;;;-2.45;82.43
43741;BME280;29352;48.708;9.290;2023-02-03T01:29:10;99076.31;;;-2.38;82.04
43741;BME280;29352;48.708;9.290;2023-02-03T01:31:40;99070.44;;;-2.42;82.55
43741;BME280;29352;48.708;9.290;2023-02-03T01:34:11;99080.19;;;-2.44;82.61
43741;BME280;29352;48.708;9.290;2023-02-03T01:36:38;99083.00;;;-2.47;82.48
43741;BME280;29352;48.708;9.290;2023-02-03T01:39:04;99092.94;;;-2.52;82.74
43741;BME280;29352;48.708;9.290;2023-02-03T01:41:32;99085.19;;;-2.41;82.88
43741;BME280;29352;48.708;9.290;2023-02-03T01:44:01;99082.47;;;-2.39;82.79
43741;BME280;29352;48.708;9.290;2023-02-03T01:47:00;99086.66;;;-2.37;82.80
43741;BME280;29352;48.708;9.290;2023-02-03T01:49:34;99071.81;;;-2.49;83.53
43741;BME280;29352;48.708;9.290;2023-02-03T01:52:03;99074.00;;;-2.30;82.90
43741;BME280;29352;48.708;9.290;2023-02-03T01:54:34;99080.19;;;-2.44;83.40
43741;BME280;29352;48.708;9.290;2023-02-03T01:57:15;99073.28;;;-2.45;83.26
43741;BME280;29352;48.708;9.290;2023-02-03T01:59:47;99079.44;;;-2.20;82.55
43741;BME280;29352;48.708;9.290;2023-02-03T02:02:13;99075.78;;;-2.30;83.13
43741;BME280;29352;48.708;9.290;2023-02-03T02:04:56;99073.19;;;-2.30;83.27
43741;BME280;29352;48.708;9.290;2023-02-03T02:07:30;99075.66;;;-2.29;82.75
43741;BME280;29352;48.708;9.290;2023-02-03T02:09:58;99065.00;;;-2.26;82.98
43741;BME280;29352;48.708;9.290;2023-02-03T02:12:24;99064.09;;;-2.38;83.52
43741;BME280;29352;48.708;9.290;2023-02-03T02:14:50;99056.53;;;-2.42;83.72
43741;BME280;29352;48.708;9.290;2023-02-03T02:17:30;99048.19;;;-2.47;83.71
43741;BME280;29352;48.708;9.290;2023-02-03T02:35:46;99015.03;;;-2.72;85.09
43741;BME280;29352;48.708;9.290;2023-02-03T02:41:44;99011.78;;;-2.89;85.84
43741;BME280;29352;48.708;9.290;2023-02-03T02:44:24;99004.06;;;-2.77;85.58
43741;BME280;29352;48.708;9.290;2023-02-03T02:47:05;99001.22;;;-2.87;86.01
43741;BME280;29352;48.708;9.290;2023-02-03T02:49:57;98991.53;;;-2.85;86.06
43741;BME280;29352;48.708;9.290;2023-02-03T02:52:33;98962.97;;;-3.01;86.63
43741;BME280;29352;48.708;9.290;2023-02-03T02:55:09;98971.75;;;-3.02;86.96
43741;BME280;29352;48.708;9.290;2023-02-03T02:57:41;99004.88;;;-3.02;86.71
43741;BME280;29352;48.708;9.290;2023-02-03T03:00:09;99013.88;;;-2.94;86.66
43741;BME280;29352;48.708;9.290;2023-02-03T03:02:36;99020.91;;;-2.69;85.86
43741;BME280;29352;48.708;9.290;2023-02-03T03:05:08;99033.13;;;-2.69;85.66
43741;BME280;29352;48.708;9.290;2023-02-03T03:07:44;99038.56;;;-2.59;85.31
43741;BME280;29352;48.708;9.290;2023-02-03T03:10:19;99045.88;;;-2.65;85.17
43741;BME280;29352;48.708;9.290;2023-02-03T03:12:54;99035.00;;;-2.46;85.08
43741;BME280;29352;48.708;9.290;2023-02-03T03:15:28;99019.91;;;-2.29;84.26
43741;BME280;29352;48.708;9.290;2023-02-03T03:18:15;99018.25;;;-2.30;84.48
43741;BME280;29352;48.708;9.290;2023-02-03T03:20:52;99023.69;;;-2.21;84.02
43741;BME280;29352;48.708;9.290;2023-02-03T03:23:27;99022.13;;;-2.36;84.15
43741;BME280;29352;48.708;9.290;2023-02-03T03:26:07;99011.78;;;-2.38;84.25
43741;BME280;29352;48.708;9.290;2023-02-03T03:29:08;99008.63;;;-2.30;84.18
43741;BME280;29352;48.708;9.290;2023-02-03T03:31:39;99005.47;;;-2.35;84.63
43741;BME280;29352;48.708;9.290;2023-02-03T03:34:08;99003.31;;;-2.41;84.60
43741;BME280;29352;48.708;9.290;2023-02-03T03:36:43;99013.03;;;-2.30;84.28
43741;BME280;29352;48.708;9.290;2023-02-03T03:39:33;99025.16;;;-2.29;84.39
43741;BME280;29352;48.708;9.290;2023-02-03T03:44:51;99030.78;;;-2.23;84.16
43741;BME280;29352;48.708;9.290;2023-02-03T03:50:11;99043.56;;;-2.56;84.99
43741;BME280;29352;48.708;9.290;2023-02-03T03:52:46;99049.22;;;-2.50;84.84
43741;BME280;29352;48.708;9.290;2023-02-03T03:55:17;99056.13;;;-2.49;84.96
43741;BME280;29352;48.708;9.290;2023-02-03T03:58:00;99069.31;;;-2.50;84.75
43741;BME280;29352;48.708;9.290;2023-02-03T04:00:33;99069.81;;;-2.45;84.53
43741;BME280;29352;48.708;9.290;2023-02-03T04:03:09;99081.00;;;-2.43;84.88
43741;BME280;29352;48.708;9.290;2023-02-03T04:05:41;99087.06;;;-2.43;84.43
43741;BME280;29352;48.708;9.290;2023-02-03T04:08:07;99080.28;;;-2.45;84.56
43741;BME280;29352;48.708;9.290;2023-02-03T04:10:35;99094.50;;;-2.37;84.13
43741;BME280;29352;48.708;9.290;2023-02-03T04:13:03;99097.63;;;-2.31;83.96
43741;BME280;29352;48.708;9.290;2023-02-03T04:15:31;99089.78;;;-2.31;83.92
43741;BME280;29352;48.708;9.290;2023-02-03T04:17:58;99086.97;;;-2.28;84.23
43741;BME280;29352;48.708;9.290;2023-02-03T04:20:26;99082.47;;;-2.39;85.15
43741;BME280;29352;48.708;9.290;2023-02-03T04:22:52;99080.91;;;-2.54;85.99
43741;BME280;29352;48.708;9.290;2023-02-03T04:25:19;99059.66;;;-2.63;86.89
43741;BME280;29352;48.708;9.290;2023-02-03T04:27:44;99062.50;;;-2.66;87.21
43741;BME280;29352;48.708;9.290;2023-02-03T04:30:10;99067.94;;;-2.69;87.58
43741;BME280;29352;48.708;9.290;2023-02-03T04:32:36;99065.66;;;-2.48;87.40
43741;BME280;29352;48.708;9.290;2023-02-03T04:35:06;99069.91;;;-2.59;87.70
43741;BME280;29352;48.708;9.290;2023-02-03T04:37:33;99058.13;;;-2.65;88.05
43741;BME280;29352;48.708;9.290;2023-02-03T04:39:58;99052.78;;;-2.51;87.97
43741;BME280;29352;48.708;9.290;2023-02-03T04:42:24;99047.47;;;-2.62;88.45
43741;BME280;29352;48.708;9.290;2023-02-03T04:44:50;99050.47;;;-2.81;88.77
43741;BME280;29352;48.708;9.290;2023-02-03T04:47:17;99047.00;;;-2.81;89.17
43741;BME280;29352;48.708;9.290;2023-02-03T04:49:43;99036.25;;;-2.90;89.52
43741;BME280;29352;48.708;9.290;2023-02-03T04:52:09;99042.00;;;-2.72;89.47
43741;BME280;29352;48.708;9.290;2023-02-03T04:54:35;99054.44;;;-2.63;89.50
43741;BME280;29352;48.708;9.290;2023-02-03T04:57:00;99055.94;;;-2.58;89.39
43741;BME280;29352;48.708;9.290;2023-02-03T04:59:26;99056.34;;;-2.52;88.79
43741;BME280;29352;48.708;9.290;2023-02-03T05:01:52;99060.31;;;-2.72;89.08
43741;BME280;29352;48.708;9.290;2023-02-03T05:04:18;99051.31;;;-2.68;89.48
43741;BME280;29352;48.708;9.290;2023-02-03T05:06:44;99034.81;;;-2.68;89.36
43741;BME280;29352;48.708;9.290;2023-02-03T05:09:10;99027.38;;;-2.74;89.41
43741;BME280;29352;48.708;9.290;2023-02-03T05:11:35;99039.38;;;-2.59;89.32
43741;BME280;29352;48.708;9.290;2023-02-03T05:14:01;99030.41;;;-2.55;88.61
43741;BME280;29352;48.708;9.290;2023-02-03T05:16:27;99036.69;;;-2.57;89.20
43741;BME280;29352;48.708;9.290;2023-02-03T05:18:53;99044.09;;;-2.64;89.26
43741;BME280;29352;48.708;9.290;2023-02-03T05:21:19;99051.94;;;-2.64;89.37
43741;BME280;29352;48.708;9.290;2023-02-03T05:23:44;99050.38;;;-2.67;89.45
43741;BME280;29352;48.708;9.290;2023-02-03T05:26:10;99056.75;;;-2.71;88.84
43741;BME280;29352;48.708;9.290;2023-02-03T05:28:35;99054.03;;;-2.69;89.47
43741;BME280;29352;48.708;9.290;2023-02-03T05:31:02;99055.50;;;-2.52;88.81
43741;BME280;29352;48.708;9.290;2023-02-03T05:33:28;99051.31;;;-2.68;89.83
43741;BME280;29352;48.708;9.290;2023-02-03T05:35:54;99047.03;;;-2.69;89.43
43741;BME280;29352;48.708;9.290;2023-02-03T05:38:20;99051.44;;;-2.69;89.50
43741;BME280;29352;48.708;9.290;2023-02-03T05:40:47;99067.44;;;-2.48;89.23
43741;BME280;29352;48.708;9.290;2023-02-03T05:43:32;99073.06;;;-2.29;88.45
43741;BME280;29352;48.708;9.290;2023-02-03T05:46:02;99082.56;;;-2.53;89.19
43741;BME280;29352;48.708;9.290;2023-02-03T05:48:32;99080.78;;;-2.53;89.29
43741;BME280;29352;48.708;9.290;2023-02-03T05:50:58;99065.44;;;-2.45;89.02
43741;BME280;29352;48.708;9.290;2023-02-03T05:53:24;99061.25;;;-2.60;89.65
43741;BME280;29352;48.708;9.290;2023-02-03T05:55:51;99064.41;;;-2.55;89.92
43741;BME280;29352;48.708;9.290;2023-02-03T05:58:17;99074.41;;;-2.74;89.26
43741;BME280;29352;48.708;9.290;2023-02-03T06:00:42;99062.91;;;-2.59;89.08
43741;BME280;29352;48.708;9.290;2023-02-03T06:03:08;99060.53;;;-2.62;89.39
43741;BME280;29352;48.708;9.290;2023-02-03T06:05:34;99045.97;;;-2.66;89.92
43741;BME280;29352;48.708;9.290;2023-02-03T06:08:02;99046.50;;;-2.61;90.20
43741;BME280;29352;48.708;9.290;2023-02-03T06:10:27;99051.63;;;-2.72;90.16
43741;BME280;29352;48.708;9.290;2023-02-03T06:12:53;99051.31;;;-2.55;89.23
43741;BME280;29352;48.708;9.290;2023-02-03T06:15:18;99064.47;;;-2.56;89.24
43741;BME280;29352;48.708;9.290;2023-02-03T06:17:46;99060.09;;;-2.43;88.58
43741;BME280;29352;48.708;9.290;2023-02-03T06:20:15;99047.75;;;-2.67;89.13
43741;BME280;29352;48.708;9.290;2023-02-03T06:22:42;99048.28;;;-2.74;89.84
43741;BME280;29352;48.708;9.290;2023-02-03T06:25:08;99040.22;;;-2.71;89.44
43741;BME280;29352;48.708;9.290;2023-02-03T06:27:34;99044.91;;;-2.76;89.06
43741;BME280;29352;48.708;9.290;2023-02-03T06:30:00;99042.75;;;-2.82;89.68
43741;BME280;29352;48.708;9.290;2023-02-03T06:32:25;99054.59;;;-3.04;89.87
43741;BME280;29352;48.708;9.290;2023-02-03T06:34:51;99053.47;;;-3.00;90.10
43741;BME280;29352;48.708;9.290;2023-02-03T06:37:16;99057.16;;;-2.90;89.92
43741;BME280;29352;48.708;9.290;2023-02-03T06:39:42;99046.28;;;-2.96;90.14
43741;BME280;29352;48.708;9.290;2023-02-03T06:42:07;99045.13;;;-2.92;89.80
43741;BME280;29352;48.708;9.290;2023-02-03T06:44:33;99035.72;;;-2.95;89.97
43741;BME280;29352;48.708;9.290;2023-02-03T06:46:58;99045.22;;;-2.94;89.80
43741;BME280;29352;48.708;9.290;2023-02-03T06:49:26;99037.91;;;-2.89;89.15
43741;BME280;29352;48.708;9.290;2023-02-03T06:51:51;99032.03;;;-3.05;89.40
43741;BME280;29352;48.708;9.290;2023-02-03T06:54:17;99017.09;;;-3.03;89.76
43741;BME280;29352;48.708;9.290;2023-02-03T06:56:43;99016.03;;;-3.13;89.79
43741;BME280;29352;48.708;9.290;2023-02-03T06:59:08;99013.63;;;-3.16;89.63
43741;BME280;29352;48.708;9.290;2023-02-03T07:01:35;99012.16;;;-3.07;89.59
43741;BME280;29352;48.708;9.290;2023-02-03T07:04:02;99009.44;;;-3.19;89.56
43741;BME280;29352;48.708;9.290;2023-02-03T07:06:28;99014.28;;;-3.00;89.45
43741;BME280;29352;48.708;9.290;2023-02-03T07:08:58;99020.53;;;-3.15;89.17
43741;BME280;29352;48.708;9.290;2023-02-03T07:11:26;99016.56;;;-3.08;89.64
43741;BME280;29352;48.708;9.290;2023-02-03T07:13:52;99018.09;;;-3.18;89.77
43741;BME280;29352;48.708;9.290;2023-02-03T07:16:18;99027.56;;;-3.03;89.38
43741;BME280;29352;48.708;9.290;2023-02-03T07:18:43;99026.56;;;-3.15;88.70
43741;BME280;29352;48.708;9.290;2023-02-03T07:21:10;99024.72;;;-3.13;88.81
43741;BME280;29352;48.708;9.290;2023-02-03T07:23:36;99028.81;;;-2.96;89.60
43741;BME280;29352;48.708;9.290;2023-02-03T07:26:03;99006.00;;;-3.19;89.92
43741;BME280;29352;48.708;9.290;2023-02-03T07:28:34;98999.66;;;-3.02;89.31
43741;BME280;29352;48.708;9.290;2023-02-03T07:31:00;98993.41;;;-3.00;88.71
43741;BME280;29352;48.708;9.290;2023-02-03T07:33:28;99003.13;;;-2.89;88.58
43741;BME280;29352;48.708;9.290;2023-02-03T07:35:58;99020.22;;;-2.98;89.18
43741;BME280;29352;48.708;9.290;2023-02-03T07:38:26;99022.66;;;-2.82;88.87
43741;BME280;29352;48.708;9.290;2023-02-03T07:40:52;99020.34;;;-2.99;89.40
43741;BME280;29352;48.708;9.290;2023-02-03T07:43:18;99019.09;;;-2.94;89.56
43741;BME280;29352;48.708;9.290;2023-02-03T07:45:44;99026.09;;;-3.07;90.18
43741;BME280;29352;48.708;9.290;2023-02-03T07:48:10;99032.91;;;-2.92;89.92
43741;BME280;29352;48.708;9.290;2023-02-03T07:50:36;99047.44;;;-3.00;89.99
43741;BME280;29352;48.708;9.290;2023-02-03T07:53:02;99038.34;;;-2.82;90.17
43741;BME280;29352;48.708;9.290;2023-02-03T07:55:28;99064.78;;;-2.74;89.63
43741;BME280;29352;48.708;9.290;2023-02-03T07:57:55;99060.88;;;-2.94;89.54
43741;BME280;29352;48.708;9.290;2023-02-03T08:00:22;99065.81;;;-2.89;89.86
43741;BME280;29352;48.708;9.290;2023-02-03T08:02:48;99063.72;;;-2.84;89.65
43741;BME280;29352;48.708;9.290;2023-02-03T08:05:15;99067.59;;;-2.90;89.30
43741;BME280;29352;48.708;9.290;2023-02-03T08:07:41;99052.97;;;-2.67;89.24
43741;BME280;29352;48.708;9.290;2023-02-03T08:10:10;99079.88;;;-2.52;88.92
43741;BME280;29352;48.708;9.290;2023-02-03T08:12:38;99079.56;;;-2.47;88.70
43741;BME280;29352;48.708;9.290;2023-02-03T08:15:04;99074.94;;;-2.56;89.03
43741;BME280;29352;48.708;9.290;2023-02-03T08:17:31;99081.75;;;-2.54;89.53
43741;BME280;29352;48.708;9.290;2023-02-03T08:19:58;99088.34;;;-2.61;89.71
43741;BME280;29352;48.708;9.290;2023-02-03T08:22:23;99093.13;;;-2.68;90.67
43741;BME280;29352;48.708;9.290;2023-02-03T08:24:49;99086.00;;;-2.78;90.55
43741;BME280;29352;48.708;9.290;2023-02-03T08:27:16;99094.38;;;-2.86;90.63
43741;BME280;29352;48.708;9.290;2023-02-03T08:29:45;99087.59;;;-2.76;91.61
43741;BME280;29352;48.708;9.290;2023-02-03T08:32:20;99089.13;;;-2.73;91.61
43741;BME280;29352;48.708;9.290;2023-02-03T08:34:48;99100.13;;;-2.68;91.50
43741;BME280;29352;48.708;9.290;2023-02-03T08:37:16;99089.28;;;-2.37;91.87
43741;BME280;29352;48.708;9.290;2023-02-03T08:39:45;99082.91;;;-2.58;92.43
43741;BME280;29352;48.708;9.290;2023-02-03T08:42:10;99069.94;;;-2.72;91.89
43741;BME280;29352;48.708;9.290;2023-02-03T08:44:36;99075.16;;;-2.47;92.01
43741;BME280;29352;48.708;9.290;2023-02-03T08:47:04;99083.31;;;-2.51;91.93
43741;BME280;29352;48.708;9.290;2023-02-03T08:49:30;99100.34;;;-2.46;90.55
43741;BME280;29352;48.708;9.290;2023-02-03T08:51:57;99108.00;;;-2.30;91.51
43741;BME280;29352;48.708;9.290;2023-02-03T08:54:23;99101.75;;;-2.27;91.48
43741;BME280;29352;48.708;9.290;2023-02-03T08:56:49;99088.25;;;-2.34;92.27
43741;BME280;29352;48.708;9.290;2023-02-03T08:59:16;99086.44;;;-2.46;92.85
43741;BME280;29352;48.708;9.290;2023-02-03T09:01:42;99081.31;;;-2.22;92.22
43741;BME280;29352;48.708;9.290;2023-02-03T09:04:14;99083.84;;;-2.21;91.84
43741;BME280;29352;48.708;9.290;2023-02-03T09:06:44;99084.84;;;-2.10;91.73
43741;BME280;29352;48.708;9.290;2023-02-03T09:09:12;99093.94;;;-1.91;91.87
43741;BME280;29352;48.708;9.290;2023-02-03T09:11:39;99087.56;;;-1.99;91.52
43741;BME280;29352;48.708;9.290;2023-02-03T09:14:06;99086.13;;;-2.03;91.59
43741;BME280;29352;48.708;9.290;2023-02-03T09:16:31;99074.81;;;-2.04;91.33
43741;BME280;29352;48.708;9.290;2023-02-03T09:18:57;99078.09;;;-1.76;91.30
43741;BME280;29352;48.708;9.290;2023-02-03T09:21:23;99079.03;;;-1.77;90.76
43741;BME280;29352;48.708;9.290;2023-02-03T09:23:49;99070.19;;;-1.51;89.19
43741;BME280;29352;48.708;9.290;2023-02-03T09:26:14;99062.63;;;-1.43;90.44
43741;BME280;29352;48.708;9.290;2023-02-03T09:28:40;99059.03;;;-1.42;89.55
43741;BME280;29352;48.708;9.290;2023-02-03T09:31:09;99062.25;;;-1.14;90.43
43741;BME280;29352;48.708;9.290;2023-02-03T09:33:39;99062.72;;;-0.85;88.51
43741;BME280;29352;48.708;9.290;2023-02-03T09:36:06;99083.81;;;-0.86;88.90
43741;BME280;29352;48.708;9.290;2023-02-03T09:38:33;99088.69;;;-1.17;89.15
43741;BME280;29352;48.708;9.290;2023-02-03T09:41:21;99085.03;;;-1.03;88.98
43741;BME280;29352;48.708;9.290;2023-02-03T09:47:01;99090.38;;;-1.16;88.54
43741;BME280;29352;48.708;9.290;2023-02-03T09:49:43;99088.84;;;-1.31;88.54
43741;BME280;29352;48.708;9.290;2023-02-03T09:52:24;99095.06;;;-1.32;89.76
43741;BME280;29352;48.708;9.290;2023-02-03T10:00:34;99091.66;;;-1.22;89.05
43741;BME280;29352;48.708;9.290;2023-02-03T10:06:08;99074.63;;;-1.27;89.04
43741;BME280;29352;48.708;9.290;2023-02-03T10:18:15;99053.81;;;-1.42;89.22
43741;BME280;29352;48.708;9.290;2023-02-03T10:20:49;99068.25;;;-1.36;89.40
43741;BME280;29352;48.708;9.290;2023-02-03T10:23:22;99079.94;;;-1.29;89.43
43741;BME280;29352;48.708;9.290;2023-02-03T10:25:54;99076.09;;;-1.12;88.84
43741;BME280;29352;48.708;9.290;2023-02-03T10:28:30;99079.13;;;-1.29;88.60
43741;BME280;29352;48.708;9.290;2023-02-03T10:31:13;99073.72;;;-1.04;88.16
43741;BME280;29352;48.708;9.290;2023-02-03T10:33:42;99076.47;;;-1.05;87.84
43741;BME280;29352;48.708;9.290;2023-02-03T10:36:20;99077.50;;;-1.19;87.50
43741;BME280;29352;48.708;9.290;2023-02-03T10:39:26;99089.81;;;-1.32;88.38
43741;BME280;29352;48.708;9.290;2023-02-03T10:41:56;99083.19;;;-0.90;88.38
43741;BME280;29352;48.708;9.290;2023-02-03T10:44:46;99097.72;;;-1.21;88.21
43741;BME280;29352;48.708;9.290;2023-02-03T10:50:15;99078.94;;;-1.15;87.90
43741;BME280;29352;48.708;9.290;2023-02-03T10:52:43;99061.56;;;-1.16;87.91
43741;BME280;29352;48.708;9.290;2023-02-03T10:57:43;99038.25;;;-0.97;89.09
43741;BME280;29352;48.708;9.290;2023-02-03T11:02:45;99041.63;;;-0.95;88.10
43741;BME280;29352;48.708;9.290;2023-02-03T11:05:21;99036.50;;;-0.96;87.74
43741;BME280;29352;48.708;9.290;2023-02-03T11:07:49;99030.59;;;-0.64;88.98
43741;BME280;29352;48.708;9.290;2023-02-03T11:10:37;99027.41;;;-0.23;87.23
43741;BME280;29352;48.708;9.290;2023-02-03T11:13:25;99019.88;;;-0.28;87.43
43741;BME280;29352;48.708;9.290;2023-02-03T11:16:03;99033.94;;;-0.06;85.33
43741;BME280;29352;48.708;9.290;2023-02-03T11:24:01;99010.09;;;-0.48;85.29
43741;BME280;29352;48.708;9.290;2023-02-03T11:29:37;99011.28;;;-0.75;85.32
43741;BME280;29352;48.708;9.290;2023-02-03T11:32:18;99015.69;;;-0.75;86.48
43741;BME280;29352;48.708;9.290;2023-02-03T11:35:03;99019.00;;;-0.84;86.80
43741;BME280;29352;48.708;9.290;2023-02-03T11:37:41;99019.72;;;-1.18;87.81
43741;BME280;29352;48.708;9.290;2023-02-03T11:42:41;99010.63;;;-1.01;86.74
43741;BME280;29352;48.708;9.290;2023-02-03T12:16:41;98980.38;;;-0.93;85.14
43741;BME280;29352;48.708;9.290;2023-02-03T12:34:25;98974.56;;;-0.63;81.50
43741;BME280;29352;48.708;9.290;2023-02-03T12:37:14;98974.34;;;-0.72;81.57
43741;BME280;29352;48.708;9.290;2023-02-03T12:40:01;98964.91;;;-0.52;81.65
43741;BME280;29352;48.708;9.290;2023-02-03T12:42:46;98955.41;;;-0.64;80.93
43741;BME280;29352;48.708;9.290;2023-02-03T12:45:30;98948.34;;;-0.75;81.27
43741;BME280;29352;48.708;9.290;2023-02-03T12:48:09;98948.34;;;-0.75;80.91
43741;BME280;29352;48.708;9.290;2023-02-03T12:50:52;98937.88;;;-0.75;80.88
43741;BME280;29352;48.708;9.290;2023-02-03T12:53:34;98917.72;;;-0.63;80.85
43741;BME280;29352;48.708;9.290;2023-02-03T12:56:14;98917.72;;;-0.63;80.73
43741;BME280;29352;48.708;9.290;2023-02-03T12:58:59;98907.97;;;-0.61;80.09
43741;BME280;29352;48.708;9.290;2023-02-03T13:01:43;98913.44;;;-0.86;80.60
43741;BME280;29352;48.708;9.290;2023-02-03T13:04:25;98895.56;;;-0.81;80.36
43741;BME280;29352;48.708;9.290;2023-02-03T13:07:07;98893.19;;;-0.73;80.58
43741;BME280;29352;48.708;9.290;2023-02-03T13:09:56;98905.22;;;-0.82;80.22
43741;BME280;29352;48.708;9.290;2023-02-03T13:12:36;98912.47;;;-0.63;79.99
43741;BME280;29352;48.708;9.290;2023-02-03T13:15:30;98903.31;;;-0.57;79.88
43741;BME280;29352;48.708;9.290;2023-02-03T13:18:07;98893.66;;;-0.79;80.08
43741;BME280;29352;48.708;9.290;2023-02-03T13:20:54;98883.19;;;-0.68;79.96
43741;BME280;29352;48.708;9.290;2023-02-03T13:23:21;98892.22;;;-0.50;79.72
43741;BME280;29352;48.708;9.290;2023-02-03T13:37:42;98884.47;;;-0.62;79.17
43741;BME280;29352;48.708;9.290;2023-02-03T13:43:42;98862.03;;;-0.55;79.09
43741;BME280;29352;48.708;9.290;2023-02-03T13:46:24;98860.84;;;-0.40;78.46
43741;BME280;29352;48.708;9.290;2023-02-03T13:48:57;98868.13;;;-0.55;78.58
43741;BME280;29352;48.708;9.290;2023-02-03T13:51:32;98853.84;;;-0.51;78.46
43741;BME280;29352;48.708;9.290;2023-02-03T13:54:13;98857.25;;;-0.39;77.83
43741;BME280;29352;48.708;9.290;2023-02-03T13:57:20;98848.59;;;-0.73;78.90
43741;BME280;29352;48.708;9.290;2023-02-03T13:59:48;98844.91;;;-0.59;78.64
43741;BME280;29352;48.708;9.290;2023-02-03T14:18:30;98855.34;;;-0.48;78.03
43741;BME280;29352;48.708;9.290;2023-02-03T14:21:12;98863.94;;;-0.46;77.80
43741;BME280;29352;48.708;9.290;2023-02-03T14:23:56;98870.81;;;-0.23;77.71
43741;BME280;29352;48.708;9.290;2023-02-03T14:26:38;98874.88;;;-0.30;77.32
43741;BME280;29352;48.708;9.290;2023-02-03T14:29:10;98885.91;;;-0.47;78.40
43741;BME280;29352;48.708;9.290;2023-02-03T14:31:56;98876.84;;;-0.54;78.58
43741;BME280;29352;48.708;9.290;2023-02-03T14:34:54;98882.44;;;-0.48;78.58
43741;BME280;29352;48.708;9.290;2023-02-03T14:37:30;98879.81;;;-0.59;78.50
43741;BME280;29352;48.708;9.290;2023-02-03T14:57:33;98882.09;;;-0.54;79.45
43741;BME280;29352;48.708;9.290;2023-02-03T15:07:56;98883.75;;;-0.76;80.19
43741;BME280;29352;48.708;9.290;2023-02-03T15:10:40;98882.81;;;-0.86;80.83
43741;BME280;29352;48.708;9.290;2023-02-03T15:13:26;98882.22;;;-0.78;80.78
43741;BME280;29352;48.708;9.290;2023-02-03T15:15:56;98884.00;;;-1.01;81.21
43741;BME280;29352;48.708;9.290;2023-02-03T15:18:38;98880.19;;;-0.86;80.98
43741;BME280;29352;48.708;9.290;2023-02-03T15:21:05;98871.25;;;-0.83;81.17
43741;BME280;29352;48.708;9.290;2023-02-03T15:23:43;98865.28;;;-0.97;81.68
43741;BME280;29352;48.708;9.290;2023-02-03T15:26:23;98861.25;;;-0.78;81.11
43741;BME280;29352;48.708;9.290;2023-02-03T15:29:00;98861.25;;;-0.89;81.65
43741;BME280;29352;48.708;9.290;2023-02-03T15:36:58;98859.00;;;-1.05;82.31
43741;BME280;29352;48.708;9.290;2023-02-03T15:42:56;98869.56;;;-1.07;82.87
43741;BME280;29352;48.708;9.290;2023-02-03T15:45:43;98882.13;;;-0.99;82.91
43741;BME280;29352;48.708;9.290;2023-02-03T15:48:42;98905.56;;;-0.98;83.22
43741;BME280;29352;48.708;9.290;2023-02-03T15:51:46;98911.75;;;-1.10;83.56
43741;BME280;29352;48.708;9.290;2023-02-03T15:56:48;98923.66;;;-1.06;83.70
43741;BME280;29352;48.708;9.290;2023-02-03T15:59:35;98918.66;;;-0.86;82.86
43741;BME280;29352;48.708;9.290;2023-02-03T16:02:18;98931.91;;;-0.88;83.14
43741;BME280;29352;48.708;9.290;2023-02-03T16:05:09;98926.53;;;-1.09;83.52
43741;BME280;29352;48.708;9.290;2023-02-03T16:07:42;98954.75;;;-0.90;82.74
43741;BME280;29352;48.708;9.290;2023-02-03T16:10:30;98951.31;;;-1.02;83.34
43741;BME280;29352;48.708;9.290;2023-02-03T16:13:21;98947.50;;;-0.98;83.49
43741;BME280;29352;48.708;9.290;2023-02-03T16:16:13;98949.16;;;-0.97;83.33
43741;BME280;29352;48.708;9.290;2023-02-03T16:18:50;98947.72;;;-0.89;83.28
43741;BME280;29352;48.708;9.290;2023-02-03T16:21:28;98956.69;;;-0.81;83.01
43741;BME280;29352;48.708;9.290;2023-02-03T16:23:54;98956.00;;;-0.60;82.26